AAL2083 KORD-KEWR
Flight info
| Callsign | AAL2083 |
|---|---|
| Flight time | 1h 32m |
| Altitude | 37000 |
| Route | DUFEE ELX HAAKK DOXXY SOSIC KEEHO J584 SLT FQM3 |
| Aircraft | B738/M-SDE2E3FGHIRWXY/LB1 |
Departure
| Time | 2026-04-26 21:47 |
|---|---|
| Airport | Chicago O'Hare International Airport (KORD) |
Arrival
| Time | 2026-04-26 23:20 |
|---|---|
| Airport | Newark Liberty International Airport (KEWR) |
| Time | Latitude | Longitude | Altitude | Speed | Heading |
|---|---|---|---|---|---|
| 2026-04-26 20:46 | 41.97476 | -87.89683 | 674 ft | 0 kts | 223° |
| 2026-04-26 21:29 | 41.97479 | -87.89678 | 674 ft | 2 kts | 224° |
| 2026-04-26 21:29 | 41.97490 | -87.89665 | 674 ft | 2 kts | 223° |
| 2026-04-26 21:29 | 41.97501 | -87.89651 | 674 ft | 2 kts | 224° |
| 2026-04-26 21:30 | 41.97508 | -87.89642 | 674 ft | 1 kts | 219° |
| 2026-04-26 21:30 | 41.97520 | -87.89639 | 674 ft | 2 kts | 154° |
| 2026-04-26 21:30 | 41.97528 | -87.89649 | 674 ft | 0 kts | 110° |
| 2026-04-26 21:30 | 41.97530 | -87.89655 | 674 ft | 1 kts | 108° |
| 2026-04-26 21:31 | 41.97530 | -87.89658 | 674 ft | 0 kts | 109° |
| 2026-04-26 21:36 | 41.97528 | -87.89648 | 674 ft | 3 kts | 109° |
| 2026-04-26 21:36 | 41.97508 | -87.89573 | 674 ft | 7 kts | 110° |
| 2026-04-26 21:36 | 41.97509 | -87.89516 | 674 ft | 5 kts | 43° |
| 2026-04-26 21:37 | 41.97558 | -87.89503 | 674 ft | 9 kts | 1° |
| 2026-04-26 21:37 | 41.97631 | -87.89502 | 674 ft | 11 kts | 359° |
| 2026-04-26 21:37 | 41.97715 | -87.89503 | 674 ft | 12 kts | 360° |
| 2026-04-26 21:37 | 41.97810 | -87.89503 | 674 ft | 14 kts | 360° |
| 2026-04-26 21:38 | 41.97915 | -87.89493 | 674 ft | 15 kts | 23° |
| 2026-04-26 21:38 | 41.97998 | -87.89384 | 674 ft | 16 kts | 50° |
| 2026-04-26 21:38 | 41.98090 | -87.89313 | 674 ft | 15 kts | 327° |
| 2026-04-26 21:38 | 41.98166 | -87.89415 | 674 ft | 14 kts | 315° |
| 2026-04-26 21:39 | 41.98248 | -87.89487 | 674 ft | 13 kts | 323° |
| 2026-04-26 21:39 | 41.98264 | -87.89601 | 674 ft | 12 kts | 274° |
| 2026-04-26 21:39 | 41.98272 | -87.89717 | 674 ft | 11 kts | 273° |
| 2026-04-26 21:39 | 41.98272 | -87.89825 | 674 ft | 11 kts | 270° |
| 2026-04-26 21:40 | 41.98272 | -87.89947 | 674 ft | 14 kts | 270° |
| 2026-04-26 21:40 | 41.98271 | -87.90102 | 674 ft | 18 kts | 270° |
| 2026-04-26 21:40 | 41.98272 | -87.90284 | 674 ft | 20 kts | 270° |
| 2026-04-26 21:40 | 41.98272 | -87.90469 | 674 ft | 19 kts | 269° |
| 2026-04-26 21:41 | 41.98271 | -87.90643 | 674 ft | 18 kts | 270° |
| 2026-04-26 21:41 | 41.98271 | -87.90815 | 674 ft | 17 kts | 270° |
| 2026-04-26 21:41 | 41.98272 | -87.90978 | 674 ft | 17 kts | 269° |
| 2026-04-26 21:41 | 41.98271 | -87.91123 | 674 ft | 14 kts | 270° |
| 2026-04-26 21:42 | 41.98271 | -87.91258 | 674 ft | 13 kts | 270° |
| 2026-04-26 21:42 | 41.98271 | -87.91389 | 674 ft | 13 kts | 270° |
| 2026-04-26 21:42 | 41.98272 | -87.91514 | 674 ft | 12 kts | 270° |
| 2026-04-26 21:42 | 41.98271 | -87.91628 | 674 ft | 11 kts | 269° |
| 2026-04-26 21:43 | 41.98270 | -87.91737 | 674 ft | 10 kts | 270° |
| 2026-04-26 21:43 | 41.98270 | -87.91843 | 674 ft | 11 kts | 270° |
| 2026-04-26 21:43 | 41.98268 | -87.91965 | 674 ft | 13 kts | 265° |
| 2026-04-26 21:43 | 41.98262 | -87.92102 | 674 ft | 15 kts | 269° |
| 2026-04-26 21:44 | 41.98262 | -87.92262 | 674 ft | 16 kts | 270° |
| 2026-04-26 21:44 | 41.98262 | -87.92419 | 674 ft | 15 kts | 269° |
| 2026-04-26 21:44 | 41.98261 | -87.92551 | 674 ft | 10 kts | 269° |
| 2026-04-26 21:44 | 41.98263 | -87.92585 | 674 ft | 0 kts | 282° |
| 2026-04-26 21:45 | 41.98268 | -87.92600 | 674 ft | 2 kts | 303° |
| 2026-04-26 21:45 | 41.98274 | -87.92609 | 674 ft | 0 kts | 317° |
| 2026-04-26 21:46 | 41.98283 | -87.92618 | 674 ft | 5 kts | 332° |
| 2026-04-26 21:46 | 41.98351 | -87.92625 | 674 ft | 11 kts | 13° |
| 2026-04-26 21:46 | 41.98373 | -87.92492 | 674 ft | 23 kts | 89° |
| 2026-04-26 21:47 | 41.98373 | -87.91949 | 674 ft | 93 kts | 90° |
| 2026-04-26 21:47 | 41.98373 | -87.90788 | 680 ft | 151 kts | 89° |
| 2026-04-26 21:47 | 41.98372 | -87.89323 | 1311 ft | 153 kts | 90° |
| 2026-04-26 21:47 | 41.98346 | -87.87864 | 2046 ft | 157 kts | 92° |
| 2026-04-26 21:48 | 41.98332 | -87.86414 | 2731 ft | 156 kts | 90° |
| 2026-04-26 21:48 | 41.98363 | -87.84917 | 3240 ft | 163 kts | 91° |
| 2026-04-26 21:48 | 41.98428 | -87.83415 | 3840 ft | 166 kts | 79° |
| 2026-04-26 21:48 | 41.99060 | -87.81969 | 4095 ft | 196 kts | 46° |
| 2026-04-26 21:49 | 42.00274 | -87.80995 | 4567 ft | 207 kts | 34° |
| 2026-04-26 21:49 | 42.01371 | -87.79803 | 5264 ft | 203 kts | 52° |
| 2026-04-26 21:49 | 42.02183 | -87.78086 | 5291 ft | 236 kts | 70° |
| 2026-04-26 21:49 | 42.02658 | -87.75714 | 4834 ft | 288 kts | 84° |
| 2026-04-26 21:50 | 42.02756 | -87.72860 | 4084 ft | 314 kts | 94° |
| 2026-04-26 21:50 | 42.02659 | -87.70885 | 4044 ft | 318 kts | 95° |
| 2026-04-26 21:50 | 42.02634 | -87.66965 | 5356 ft | 314 kts | 89° |
| 2026-04-26 21:50 | 42.02856 | -87.64080 | 6401 ft | 309 kts | 84° |
| 2026-04-26 21:51 | 42.03203 | -87.61287 | 7400 ft | 304 kts | 82° |
| 2026-04-26 21:51 | 42.03607 | -87.58536 | 8439 ft | 298 kts | 82° |
| 2026-04-26 21:51 | 42.04018 | -87.55854 | 9456 ft | 292 kts | 82° |
| 2026-04-26 21:51 | 42.04419 | -87.53220 | 10355 ft | 292 kts | 82° |
| 2026-04-26 21:52 | 42.04821 | -87.50532 | 11175 ft | 294 kts | 82° |
| 2026-04-26 21:52 | 42.05223 | -87.47792 | 11542 ft | 313 kts | 82° |
| 2026-04-26 21:52 | 42.05653 | -87.44802 | 11709 ft | 338 kts | 81° |
| 2026-04-26 21:52 | 42.06123 | -87.41565 | 12202 ft | 355 kts | 81° |
| 2026-04-26 21:53 | 42.06612 | -87.38214 | 12650 ft | 371 kts | 81° |
| 2026-04-26 21:53 | 42.07117 | -87.34758 | 13236 ft | 384 kts | 82° |
| 2026-04-26 21:53 | 42.07655 | -87.31078 | 13991 ft | 390 kts | 81° |
| 2026-04-26 21:53 | 42.08201 | -87.27344 | 14801 ft | 396 kts | 81° |
| 2026-04-26 21:54 | 42.08738 | -87.23661 | 15564 ft | 401 kts | 81° |
| 2026-04-26 21:54 | 42.09290 | -87.19862 | 16326 ft | 406 kts | 80° |
| 2026-04-26 21:54 | 42.09841 | -87.16058 | 17063 ft | 410 kts | 80° |
| 2026-04-26 21:54 | 42.10396 | -87.12206 | 17605 ft | 420 kts | 80° |
| 2026-04-26 21:55 | 42.10960 | -87.08223 | 18061 ft | 430 kts | 81° |
| 2026-04-26 21:55 | 42.11404 | -87.04153 | 18661 ft | 435 kts | 84° |
| 2026-04-26 21:55 | 42.11658 | -87.00089 | 19334 ft | 438 kts | 87° |
| 2026-04-26 21:55 | 42.11817 | -86.95996 | 19961 ft | 441 kts | 88° |
| 2026-04-26 21:56 | 42.11943 | -86.91754 | 20523 ft | 446 kts | 88° |
| 2026-04-26 21:56 | 42.12059 | -86.87485 | 21099 ft | 450 kts | 88° |
| 2026-04-26 21:56 | 42.12176 | -86.83307 | 21659 ft | 454 kts | 88° |
| 2026-04-26 21:56 | 42.12300 | -86.79082 | 22237 ft | 457 kts | 88° |
| 2026-04-26 21:57 | 42.12430 | -86.74803 | 22755 ft | 461 kts | 87° |
| 2026-04-26 21:57 | 42.12568 | -86.70461 | 23270 ft | 465 kts | 87° |
| 2026-04-26 21:57 | 42.12711 | -86.66060 | 23792 ft | 469 kts | 87° |
| 2026-04-26 21:57 | 42.12856 | -86.61672 | 24295 ft | 473 kts | 87° |
| 2026-04-26 21:58 | 42.13002 | -86.57277 | 24797 ft | 477 kts | 86° |
| 2026-04-26 21:58 | 42.13152 | -86.52768 | 25318 ft | 481 kts | 86° |
| 2026-04-26 21:58 | 42.13300 | -86.48283 | 25836 ft | 485 kts | 86° |
| 2026-04-26 21:58 | 42.13450 | -86.43721 | 26313 ft | 489 kts | 86° |
| 2026-04-26 21:59 | 42.13599 | -86.39130 | 26811 ft | 493 kts | 86° |
| 2026-04-26 21:59 | 42.13749 | -86.34536 | 27274 ft | 497 kts | 87° |
| 2026-04-26 21:59 | 42.13900 | -86.29845 | 27791 ft | 499 kts | 86° |
| 2026-04-26 21:59 | 42.14048 | -86.25175 | 28439 ft | 497 kts | 86° |
| 2026-04-26 22:00 | 42.14195 | -86.20455 | 29156 ft | 495 kts | 86° |
| 2026-04-26 22:00 | 42.14337 | -86.15789 | 29752 ft | 494 kts | 86° |
| 2026-04-26 22:00 | 42.14471 | -86.11211 | 30315 ft | 494 kts | 86° |
| 2026-04-26 22:00 | 42.14540 | -86.06561 | 30953 ft | 492 kts | 88° |
| 2026-04-26 22:01 | 42.14535 | -86.01936 | 31520 ft | 492 kts | 89° |
| 2026-04-26 22:01 | 42.14489 | -85.97344 | 32066 ft | 492 kts | 89° |
| 2026-04-26 22:01 | 42.14426 | -85.92734 | 32588 ft | 491 kts | 89° |
| 2026-04-26 22:01 | 42.14361 | -85.88141 | 33146 ft | 490 kts | 89° |
| 2026-04-26 22:02 | 42.14299 | -85.83534 | 33650 ft | 490 kts | 89° |
| 2026-04-26 22:02 | 42.14261 | -85.80477 | 33955 ft | 490 kts | 89° |
| 2026-04-26 22:02 | 42.14189 | -85.74345 | 34611 ft | 489 kts | 88° |
| 2026-04-26 22:02 | 42.14140 | -85.69764 | 35038 ft | 488 kts | 88° |
| 2026-04-26 22:03 | 42.14091 | -85.65173 | 35433 ft | 488 kts | 88° |
| 2026-04-26 22:03 | 42.14044 | -85.60578 | 35751 ft | 489 kts | 88° |
| 2026-04-26 22:03 | 42.13996 | -85.55970 | 36116 ft | 489 kts | 88° |
| 2026-04-26 22:03 | 42.13947 | -85.51300 | 36464 ft | 490 kts | 88° |
| 2026-04-26 22:04 | 42.13897 | -85.46707 | 36886 ft | 489 kts | 88° |
| 2026-04-26 22:04 | 42.13845 | -85.42071 | 37130 ft | 492 kts | 88° |
| 2026-04-26 22:04 | 42.13736 | -85.32784 | 37122 ft | 488 kts | 89° |
| 2026-04-26 22:05 | 42.13617 | -85.23554 | 37126 ft | 487 kts | 89° |
| 2026-04-26 22:05 | 42.13490 | -85.14231 | 37130 ft | 488 kts | 89° |
| 2026-04-26 22:06 | 42.13356 | -85.04874 | 37131 ft | 488 kts | 88° |
| 2026-04-26 22:06 | 42.13207 | -84.95629 | 37134 ft | 488 kts | 89° |
| 2026-04-26 22:07 | 42.13038 | -84.86350 | 37135 ft | 487 kts | 89° |
| 2026-04-26 22:07 | 42.12889 | -84.78617 | 37129 ft | 487 kts | 88° |
| 2026-04-26 22:08 | 42.12677 | -84.67877 | 37142 ft | 488 kts | 89° |
| 2026-04-26 22:08 | 42.12586 | -84.63386 | 37138 ft | 488 kts | 89° |
| 2026-04-26 22:09 | 42.12392 | -84.54121 | 37151 ft | 487 kts | 88° |
| 2026-04-26 22:09 | 42.12532 | -84.44882 | 37152 ft | 483 kts | 81° |
| 2026-04-26 22:10 | 42.13376 | -84.35815 | 37149 ft | 480 kts | 77° |
| 2026-04-26 22:10 | 42.14449 | -84.26749 | 37153 ft | 481 kts | 77° |
| 2026-04-26 22:11 | 42.15532 | -84.17643 | 37151 ft | 479 kts | 77° |
| 2026-04-26 22:11 | 42.16573 | -84.08552 | 37154 ft | 480 kts | 77° |
| 2026-04-26 22:12 | 42.17589 | -83.99442 | 37160 ft | 479 kts | 77° |
| 2026-04-26 22:12 | 42.18583 | -83.90362 | 37172 ft | 479 kts | 78° |
| 2026-04-26 22:13 | 42.19559 | -83.81313 | 37176 ft | 479 kts | 78° |
| 2026-04-26 22:13 | 42.20513 | -83.72410 | 37174 ft | 478 kts | 77° |
| 2026-04-26 22:14 | 42.21469 | -83.63435 | 37176 ft | 478 kts | 77° |
| 2026-04-26 22:14 | 42.22369 | -83.54565 | 37177 ft | 478 kts | 79° |
| 2026-04-26 22:15 | 42.22319 | -83.45464 | 37179 ft | 485 kts | 94° |
| 2026-04-26 22:15 | 42.20971 | -83.36447 | 37179 ft | 488 kts | 101° |
| 2026-04-26 22:16 | 42.19288 | -83.27626 | 37182 ft | 488 kts | 102° |
| 2026-04-26 22:16 | 42.17554 | -83.18710 | 37184 ft | 487 kts | 102° |
| 2026-04-26 22:17 | 42.15832 | -83.09669 | 37182 ft | 487 kts | 102° |
| 2026-04-26 22:17 | 42.14151 | -83.00697 | 37184 ft | 485 kts | 101° |
| 2026-04-26 22:18 | 42.12476 | -82.91698 | 37185 ft | 485 kts | 101° |
| 2026-04-26 22:18 | 42.10813 | -82.82754 | 37172 ft | 485 kts | 101° |
| 2026-04-26 22:19 | 42.09150 | -82.73852 | 37169 ft | 485 kts | 101° |
| 2026-04-26 22:19 | 42.07472 | -82.64909 | 37168 ft | 485 kts | 101° |
| 2026-04-26 22:20 | 42.06056 | -82.57396 | 37166 ft | 486 kts | 101° |
| 2026-04-26 22:20 | 42.04048 | -82.46797 | 37166 ft | 484 kts | 101° |
| 2026-04-26 22:21 | 42.02317 | -82.37710 | 37163 ft | 484 kts | 101° |
| 2026-04-26 22:21 | 42.00602 | -82.28741 | 37163 ft | 485 kts | 101° |
| 2026-04-26 22:22 | 41.98855 | -82.19654 | 37165 ft | 484 kts | 101° |
| 2026-04-26 22:22 | 41.97128 | -82.10709 | 37166 ft | 485 kts | 102° |
| 2026-04-26 22:23 | 41.95395 | -82.01771 | 37160 ft | 484 kts | 101° |
| 2026-04-26 22:23 | 41.93641 | -81.92766 | 37164 ft | 483 kts | 102° |
| 2026-04-26 22:24 | 41.91919 | -81.83786 | 37166 ft | 483 kts | 99° |
| 2026-04-26 22:24 | 41.90780 | -81.74676 | 37166 ft | 480 kts | 93° |
| 2026-04-26 22:25 | 41.90031 | -81.65603 | 37165 ft | 478 kts | 92° |
| 2026-04-26 22:25 | 41.89330 | -81.56714 | 37169 ft | 477 kts | 92° |
| 2026-04-26 22:26 | 41.88569 | -81.47653 | 37170 ft | 479 kts | 92° |
| 2026-04-26 22:26 | 41.87757 | -81.38467 | 37175 ft | 477 kts | 92° |
| 2026-04-26 22:27 | 41.86933 | -81.29417 | 37172 ft | 478 kts | 93° |
| 2026-04-26 22:27 | 41.86078 | -81.20190 | 37175 ft | 477 kts | 93° |
| 2026-04-26 22:28 | 41.85218 | -81.11007 | 37170 ft | 478 kts | 93° |
| 2026-04-26 22:28 | 41.84357 | -81.01879 | 37177 ft | 478 kts | 93° |
| 2026-04-26 22:29 | 41.83490 | -80.92773 | 37177 ft | 477 kts | 93° |
| 2026-04-26 22:29 | 41.82623 | -80.83730 | 37176 ft | 477 kts | 93° |
| 2026-04-26 22:30 | 41.81759 | -80.74809 | 37176 ft | 477 kts | 93° |
| 2026-04-26 22:30 | 41.80884 | -80.65847 | 37180 ft | 477 kts | 93° |
| 2026-04-26 22:31 | 41.80000 | -80.56869 | 37174 ft | 476 kts | 93° |
| 2026-04-26 22:31 | 41.79109 | -80.47876 | 37165 ft | 477 kts | 93° |
| 2026-04-26 22:32 | 41.78221 | -80.38999 | 37169 ft | 476 kts | 93° |
| 2026-04-26 22:32 | 41.77330 | -80.30162 | 37164 ft | 477 kts | 94° |
| 2026-04-26 22:33 | 41.75973 | -80.16831 | 37171 ft | 475 kts | 94° |
| 2026-04-26 22:34 | 41.75071 | -80.08051 | 37162 ft | 475 kts | 94° |
| 2026-04-26 22:34 | 41.74150 | -79.99159 | 37161 ft | 475 kts | 94° |
| 2026-04-26 22:35 | 41.73221 | -79.90260 | 37163 ft | 476 kts | 94° |
| 2026-04-26 22:35 | 41.72289 | -79.81396 | 37161 ft | 475 kts | 94° |
| 2026-04-26 22:36 | 41.71347 | -79.72508 | 37157 ft | 474 kts | 94° |
| 2026-04-26 22:36 | 41.70404 | -79.63688 | 37162 ft | 474 kts | 94° |
| 2026-04-26 22:37 | 41.69448 | -79.54803 | 37162 ft | 474 kts | 94° |
| 2026-04-26 22:37 | 41.68483 | -79.45902 | 37158 ft | 474 kts | 94° |
| 2026-04-26 22:38 | 41.67518 | -79.37062 | 37154 ft | 473 kts | 94° |
| 2026-04-26 22:38 | 41.66548 | -79.28240 | 37152 ft | 474 kts | 95° |
| 2026-04-26 22:39 | 41.65570 | -79.19416 | 37151 ft | 473 kts | 95° |
| 2026-04-26 22:39 | 41.64593 | -79.10669 | 37147 ft | 474 kts | 95° |
| 2026-04-26 22:40 | 41.63597 | -79.01820 | 37151 ft | 472 kts | 95° |
| 2026-04-26 22:40 | 41.62603 | -78.93042 | 37150 ft | 473 kts | 95° |
| 2026-04-26 22:41 | 41.61592 | -78.84190 | 37153 ft | 473 kts | 95° |
| 2026-04-26 22:41 | 41.60578 | -78.75371 | 37152 ft | 473 kts | 95° |
| 2026-04-26 22:42 | 41.59561 | -78.66559 | 37151 ft | 473 kts | 95° |
| 2026-04-26 22:42 | 41.58540 | -78.57788 | 37153 ft | 473 kts | 95° |
| 2026-04-26 22:43 | 41.57501 | -78.48929 | 37151 ft | 472 kts | 95° |
| 2026-04-26 22:43 | 41.56467 | -78.40168 | 37169 ft | 473 kts | 95° |
| 2026-04-26 22:44 | 41.55430 | -78.31447 | 37165 ft | 472 kts | 95° |
| 2026-04-26 22:44 | 41.54392 | -78.22771 | 37165 ft | 472 kts | 96° |
| 2026-04-26 22:45 | 41.53344 | -78.14068 | 37166 ft | 472 kts | 96° |
| 2026-04-26 22:45 | 41.52288 | -78.05347 | 37158 ft | 472 kts | 96° |
| 2026-04-26 22:46 | 41.51228 | -77.96671 | 37162 ft | 473 kts | 96° |
| 2026-04-26 22:46 | 41.50075 | -77.88006 | 37163 ft | 473 kts | 97° |
| 2026-04-26 22:47 | 41.48813 | -77.79223 | 37164 ft | 474 kts | 97° |
| 2026-04-26 22:47 | 41.47536 | -77.70428 | 37167 ft | 474 kts | 97° |
| 2026-04-26 22:48 | 41.46263 | -77.61642 | 37165 ft | 476 kts | 97° |
| 2026-04-26 22:48 | 41.45002 | -77.52931 | 37160 ft | 474 kts | 97° |
| 2026-04-26 22:49 | 41.43735 | -77.44196 | 37164 ft | 476 kts | 97° |
| 2026-04-26 22:49 | 41.42464 | -77.35455 | 37158 ft | 477 kts | 97° |
| 2026-04-26 22:50 | 41.41170 | -77.26614 | 37170 ft | 478 kts | 98° |
| 2026-04-26 22:50 | 41.39878 | -77.17831 | 36990 ft | 471 kts | 98° |
| 2026-04-26 22:50 | 41.39247 | -77.13577 | 36607 ft | 466 kts | 98° |
| 2026-04-26 22:51 | 41.38611 | -77.09294 | 36128 ft | 468 kts | 97° |
| 2026-04-26 22:51 | 41.37971 | -77.04980 | 35495 ft | 470 kts | 97° |
| 2026-04-26 22:51 | 41.37326 | -77.00643 | 34786 ft | 474 kts | 97° |
| 2026-04-26 22:51 | 41.36668 | -76.96221 | 33944 ft | 476 kts | 97° |
| 2026-04-26 22:52 | 41.36016 | -76.91856 | 33141 ft | 478 kts | 97° |
| 2026-04-26 22:52 | 41.35357 | -76.87468 | 32343 ft | 479 kts | 97° |
| 2026-04-26 22:52 | 41.34692 | -76.83064 | 31526 ft | 480 kts | 97° |
| 2026-04-26 22:52 | 41.34005 | -76.78666 | 30692 ft | 481 kts | 98° |
| 2026-04-26 22:53 | 41.33142 | -76.74277 | 29801 ft | 484 kts | 102° |
| 2026-04-26 22:53 | 41.32099 | -76.69963 | 28913 ft | 486 kts | 105° |
| 2026-04-26 22:53 | 41.30958 | -76.65683 | 27973 ft | 491 kts | 106° |
| 2026-04-26 22:53 | 41.29748 | -76.61324 | 27296 ft | 488 kts | 107° |
| 2026-04-26 22:54 | 41.28546 | -76.57042 | 26645 ft | 485 kts | 107° |
| 2026-04-26 22:54 | 41.27359 | -76.52807 | 25966 ft | 481 kts | 107° |
| 2026-04-26 22:54 | 41.26187 | -76.48601 | 25283 ft | 476 kts | 106° |
| 2026-04-26 22:54 | 41.25050 | -76.44492 | 24603 ft | 471 kts | 106° |
| 2026-04-26 22:55 | 41.23934 | -76.40429 | 23929 ft | 467 kts | 106° |
| 2026-04-26 22:55 | 41.22839 | -76.36425 | 23265 ft | 463 kts | 106° |
| 2026-04-26 22:55 | 41.21742 | -76.32398 | 22598 ft | 458 kts | 106° |
| 2026-04-26 22:55 | 41.20651 | -76.28390 | 21921 ft | 454 kts | 107° |
| 2026-04-26 22:56 | 41.19559 | -76.24375 | 21238 ft | 450 kts | 106° |
| 2026-04-26 22:56 | 41.18499 | -76.20484 | 20581 ft | 446 kts | 106° |
| 2026-04-26 22:56 | 41.17457 | -76.16658 | 19928 ft | 441 kts | 106° |
| 2026-04-26 22:56 | 41.16407 | -76.12807 | 19251 ft | 437 kts | 106° |
| 2026-04-26 22:57 | 41.15375 | -76.09026 | 18588 ft | 433 kts | 106° |
| 2026-04-26 22:57 | 41.14349 | -76.05274 | 18164 ft | 422 kts | 106° |
| 2026-04-26 22:57 | 41.13351 | -76.01634 | 18168 ft | 421 kts | 105° |
| 2026-04-26 22:57 | 41.12328 | -75.97892 | 18182 ft | 426 kts | 105° |
| 2026-04-26 22:58 | 41.11317 | -75.94199 | 18194 ft | 425 kts | 106° |
| 2026-04-26 22:58 | 41.10302 | -75.90505 | 18202 ft | 425 kts | 106° |
| 2026-04-26 22:58 | 41.09287 | -75.86816 | 18182 ft | 425 kts | 106° |
| 2026-04-26 22:58 | 41.08270 | -75.83133 | 17682 ft | 423 kts | 105° |
| 2026-04-26 22:59 | 41.07261 | -75.79490 | 16929 ft | 422 kts | 105° |
| 2026-04-26 22:59 | 41.06247 | -75.75829 | 16252 ft | 419 kts | 106° |
| 2026-04-26 22:59 | 41.05253 | -75.72251 | 15604 ft | 416 kts | 106° |
| 2026-04-26 22:59 | 41.04253 | -75.68652 | 14933 ft | 412 kts | 106° |
| 2026-04-26 23:00 | 41.03262 | -75.65094 | 14302 ft | 407 kts | 106° |
| 2026-04-26 23:00 | 41.02279 | -75.61567 | 13655 ft | 403 kts | 106° |
| 2026-04-26 23:00 | 41.01312 | -75.58102 | 13088 ft | 396 kts | 106° |
| 2026-04-26 23:00 | 41.00372 | -75.54740 | 12921 ft | 387 kts | 106° |
| 2026-04-26 23:01 | 40.99424 | -75.51336 | 12936 ft | 392 kts | 106° |
| 2026-04-26 23:01 | 40.98481 | -75.47953 | 12934 ft | 390 kts | 106° |
| 2026-04-26 23:01 | 40.97530 | -75.44544 | 12939 ft | 391 kts | 106° |
| 2026-04-26 23:01 | 40.96578 | -75.41142 | 12874 ft | 388 kts | 106° |
| 2026-04-26 23:02 | 40.95641 | -75.37806 | 12336 ft | 384 kts | 106° |
| 2026-04-26 23:02 | 40.94722 | -75.34537 | 11740 ft | 380 kts | 107° |
| 2026-04-26 23:02 | 40.93793 | -75.31231 | 11152 ft | 376 kts | 107° |
| 2026-04-26 23:02 | 40.92889 | -75.28027 | 10783 ft | 366 kts | 107° |
| 2026-04-26 23:03 | 40.92008 | -75.24926 | 10586 ft | 351 kts | 107° |
| 2026-04-26 23:03 | 40.91166 | -75.21968 | 10449 ft | 336 kts | 107° |
| 2026-04-26 23:03 | 40.90363 | -75.19144 | 10308 ft | 322 kts | 106° |
| 2026-04-26 23:03 | 40.89587 | -75.16404 | 10168 ft | 309 kts | 106° |
| 2026-04-26 23:04 | 40.88837 | -75.13756 | 9929 ft | 301 kts | 106° |
| 2026-04-26 23:04 | 40.88168 | -75.11383 | 9581 ft | 299 kts | 105° |
| 2026-04-26 23:04 | 40.87435 | -75.08781 | 9206 ft | 296 kts | 105° |
| 2026-04-26 23:04 | 40.86718 | -75.06229 | 8854 ft | 293 kts | 105° |
| 2026-04-26 23:05 | 40.86007 | -75.03706 | 8495 ft | 290 kts | 105° |
| 2026-04-26 23:05 | 40.85302 | -75.01205 | 8146 ft | 286 kts | 106° |
| 2026-04-26 23:05 | 40.84605 | -74.98738 | 7801 ft | 282 kts | 106° |
| 2026-04-26 23:05 | 40.83919 | -74.96312 | 7457 ft | 278 kts | 106° |
| 2026-04-26 23:06 | 40.83249 | -74.93946 | 7129 ft | 274 kts | 106° |
| 2026-04-26 23:06 | 40.82588 | -74.91618 | 6933 ft | 264 kts | 105° |
| 2026-04-26 23:06 | 40.81953 | -74.89342 | 6939 ft | 259 kts | 105° |
| 2026-04-26 23:06 | 40.81244 | -74.87135 | 6939 ft | 264 kts | 115° |
| 2026-04-26 23:07 | 40.80154 | -74.85081 | 6941 ft | 267 kts | 123° |
| 2026-04-26 23:07 | 40.79401 | -74.83762 | 6938 ft | 266 kts | 120° |
| 2026-04-26 23:07 | 40.78016 | -74.81029 | 6943 ft | 265 kts | 118° |
| 2026-04-26 23:07 | 40.77007 | -74.78949 | 6866 ft | 261 kts | 118° |
| 2026-04-26 23:08 | 40.76034 | -74.76944 | 6537 ft | 259 kts | 117° |
| 2026-04-26 23:08 | 40.75052 | -74.74933 | 6172 ft | 258 kts | 117° |
| 2026-04-26 23:08 | 40.74079 | -74.72942 | 5810 ft | 257 kts | 118° |
| 2026-04-26 23:08 | 40.73092 | -74.70914 | 5449 ft | 256 kts | 118° |
| 2026-04-26 23:09 | 40.72123 | -74.68908 | 5114 ft | 254 kts | 118° |
| 2026-04-26 23:09 | 40.71171 | -74.66924 | 4781 ft | 252 kts | 117° |
| 2026-04-26 23:09 | 40.70245 | -74.64980 | 4440 ft | 250 kts | 117° |
| 2026-04-26 23:09 | 40.69313 | -74.63018 | 4098 ft | 249 kts | 117° |
| 2026-04-26 23:10 | 40.68394 | -74.61077 | 3954 ft | 245 kts | 117° |
| 2026-04-26 23:10 | 40.67498 | -74.59190 | 3959 ft | 235 kts | 117° |
| 2026-04-26 23:10 | 40.66643 | -74.57408 | 3962 ft | 221 kts | 117° |
| 2026-04-26 23:10 | 40.65822 | -74.55711 | 3965 ft | 217 kts | 117° |
| 2026-04-26 23:11 | 40.65002 | -74.54009 | 3966 ft | 218 kts | 117° |
| 2026-04-26 23:11 | 40.64188 | -74.52317 | 3968 ft | 212 kts | 117° |
| 2026-04-26 23:11 | 40.63417 | -74.50739 | 3964 ft | 197 kts | 117° |
| 2026-04-26 23:11 | 40.62669 | -74.49220 | 3793 ft | 193 kts | 117° |
| 2026-04-26 23:12 | 40.61934 | -74.47736 | 3597 ft | 190 kts | 117° |
| 2026-04-26 23:12 | 40.61209 | -74.46277 | 3407 ft | 187 kts | 117° |
| 2026-04-26 23:12 | 40.60492 | -74.44823 | 3217 ft | 186 kts | 117° |
| 2026-04-26 23:12 | 40.59780 | -74.43363 | 3027 ft | 185 kts | 117° |
| 2026-04-26 23:13 | 40.59092 | -74.41939 | 2964 ft | 182 kts | 117° |
| 2026-04-26 23:13 | 40.58397 | -74.40504 | 2968 ft | 185 kts | 117° |
| 2026-04-26 23:13 | 40.57702 | -74.39072 | 2969 ft | 184 kts | 117° |
| 2026-04-26 23:13 | 40.56999 | -74.37631 | 2970 ft | 184 kts | 117° |
| 2026-04-26 23:14 | 40.56305 | -74.36199 | 2969 ft | 184 kts | 117° |
| 2026-04-26 23:14 | 40.55615 | -74.34779 | 2971 ft | 184 kts | 118° |
| 2026-04-26 23:14 | 40.54922 | -74.33357 | 2970 ft | 184 kts | 118° |
| 2026-04-26 23:14 | 40.54219 | -74.31921 | 2970 ft | 184 kts | 118° |
| 2026-04-26 23:15 | 40.53525 | -74.30514 | 2923 ft | 186 kts | 118° |
| 2026-04-26 23:15 | 40.53016 | -74.28995 | 2771 ft | 177 kts | 92° |
| 2026-04-26 23:15 | 40.53272 | -74.27514 | 2633 ft | 164 kts | 59° |
| 2026-04-26 23:15 | 40.54021 | -74.26417 | 2489 ft | 157 kts | 41° |
| 2026-04-26 23:16 | 40.54907 | -74.25630 | 2468 ft | 154 kts | 33° |
| 2026-04-26 23:16 | 40.55855 | -74.24959 | 2468 ft | 153 kts | 30° |
| 2026-04-26 23:16 | 40.56794 | -74.24352 | 2445 ft | 141 kts | 29° |
| 2026-04-26 23:16 | 40.57641 | -74.23816 | 2321 ft | 131 kts | 30° |
| 2026-04-26 23:17 | 40.58470 | -74.23283 | 2117 ft | 133 kts | 31° |
| 2026-04-26 23:17 | 40.59298 | -74.22759 | 1939 ft | 133 kts | 30° |
| 2026-04-26 23:17 | 40.60139 | -74.22230 | 1753 ft | 133 kts | 31° |
| 2026-04-26 23:17 | 40.60967 | -74.21708 | 1573 ft | 134 kts | 30° |
| 2026-04-26 23:18 | 40.61812 | -74.21175 | 1393 ft | 135 kts | 30° |
| 2026-04-26 23:18 | 40.62672 | -74.20630 | 1209 ft | 137 kts | 30° |
| 2026-04-26 23:18 | 40.63532 | -74.20094 | 1020 ft | 137 kts | 28° |
| 2026-04-26 23:18 | 40.64395 | -74.19559 | 854 ft | 135 kts | 29° |
| 2026-04-26 23:19 | 40.65246 | -74.19019 | 644 ft | 138 kts | 28° |
| 2026-04-26 23:19 | 40.66106 | -74.18473 | 484 ft | 139 kts | 29° |
| 2026-04-26 23:19 | 40.66990 | -74.17910 | 303 ft | 140 kts | 29° |
| 2026-04-26 23:19 | 40.67867 | -74.17354 | 117 ft | 141 kts | 28° |
| 2026-04-26 23:20 | 40.68724 | -74.16811 | 25 ft | 122 kts | 27° |
| 2026-04-26 23:20 | 40.69236 | -74.16486 | 25 ft | 45 kts | 25° |
| 2026-04-26 23:20 | 40.69469 | -74.16465 | 25 ft | 14 kts | 332° |
| 2026-04-26 23:20 | 40.69465 | -74.16563 | 25 ft | 12 kts | 210° |
| 2026-04-26 23:21 | 40.69387 | -74.16610 | 25 ft | 12 kts | 205° |
| 2026-04-26 23:21 | 40.69310 | -74.16657 | 25 ft | 12 kts | 207° |
| 2026-04-26 23:21 | 40.69237 | -74.16706 | 25 ft | 11 kts | 207° |
| 2026-04-26 23:21 | 40.69164 | -74.16752 | 25 ft | 11 kts | 204° |
| 2026-04-26 23:22 | 40.69094 | -74.16795 | 25 ft | 10 kts | 206° |
| 2026-04-26 23:22 | 40.69028 | -74.16841 | 25 ft | 10 kts | 227° |
| 2026-04-26 23:22 | 40.69038 | -74.16926 | 25 ft | 10 kts | 296° |
| 2026-04-26 23:22 | 40.69076 | -74.17027 | 25 ft | 13 kts | 296° |
| 2026-04-26 23:23 | 40.69119 | -74.17145 | 25 ft | 14 kts | 295° |
| 2026-04-26 23:23 | 40.69087 | -74.17240 | 25 ft | 13 kts | 206° |
| 2026-04-26 23:23 | 40.68999 | -74.17296 | 25 ft | 14 kts | 205° |
| 2026-04-26 23:23 | 40.68910 | -74.17354 | 25 ft | 14 kts | 206° |
| 2026-04-26 23:24 | 40.68817 | -74.17412 | 25 ft | 14 kts | 206° |
| 2026-04-26 23:24 | 40.68724 | -74.17471 | 25 ft | 15 kts | 206° |
| 2026-04-26 23:24 | 40.68628 | -74.17532 | 25 ft | 15 kts | 205° |
| 2026-04-26 23:24 | 40.68530 | -74.17594 | 25 ft | 15 kts | 206° |
| 2026-04-26 23:25 | 40.68431 | -74.17657 | 25 ft | 16 kts | 205° |
| 2026-04-26 23:25 | 40.68328 | -74.17722 | 25 ft | 16 kts | 205° |
| 2026-04-26 23:25 | 40.68226 | -74.17786 | 25 ft | 15 kts | 205° |
| 2026-04-26 23:25 | 40.68192 | -74.17882 | 25 ft | 13 kts | 296° |
| 2026-04-26 23:26 | 40.68230 | -74.17997 | 25 ft | 13 kts | 280° |
| 2026-04-26 23:26 | 40.68238 | -74.18124 | 25 ft | 14 kts | 273° |
| 2026-04-26 23:26 | 40.68234 | -74.18254 | 25 ft | 14 kts | 274° |
| 2026-04-26 23:26 | 40.68242 | -74.18379 | 25 ft | 13 kts | 275° |
| 2026-04-26 23:27 | 40.68249 | -74.18492 | 25 ft | 11 kts | 274° |
| 2026-04-26 23:27 | 40.68248 | -74.18559 | 25 ft | 2 kts | 296° |
| 2026-04-26 23:27 | 40.68274 | -74.18565 | 25 ft | 4 kts | 2° |
| 2026-04-26 23:27 | 40.68294 | -74.18564 | 25 ft | 4 kts | 5° |
| 2026-04-26 23:28 | 40.68311 | -74.18562 | 25 ft | 0 kts | 6° |